createdAt,value
2022-09-24T00:04:37.869Z,35.15
2022-09-24T00:09:41.514Z,34.13
2022-09-24T00:14:46.368Z,33.38
2022-09-24T00:19:49.928Z,30.63
2022-09-24T00:25:10.723Z,34.13
2022-09-24T00:30:15.857Z,36.90
2022-09-24T00:35:19.503Z,33.30
2022-09-24T00:40:28.821Z,38.80
2022-09-24T00:45:33.801Z,37.67
2022-09-24T00:50:37.589Z,36.58
2022-09-24T00:55:43.641Z,39.65
2022-09-24T01:00:49.498Z,35.22
2022-09-24T01:05:53.365Z,39.78
2022-09-24T01:11:20.566Z,38.55
2022-09-24T01:16:34.163Z,40.00
2022-09-24T01:21:49.182Z,35.50
2022-09-24T01:27:05.338Z,39.05
2022-09-24T01:32:19.998Z,36.65
2022-09-24T01:37:26.419Z,41.03
2022-09-24T01:42:32.273Z,39.38
2022-09-24T01:47:41.335Z,42.63
2022-09-24T01:52:50.062Z,44.70
2022-09-24T01:57:58.435Z,46.42
2022-09-24T02:03:11.463Z,43.22
2022-09-24T02:08:20.019Z,45.53
2022-09-24T02:13:27.937Z,40.03
2022-09-24T02:18:35.994Z,36.67
2022-09-24T02:23:45.059Z,35.60
2022-09-24T02:28:48.747Z,34.33
2022-09-24T02:34:11.901Z,33.22
2022-09-24T02:39:17.447Z,31.13
2022-09-24T02:44:22.396Z,30.33
2022-09-24T02:49:27.604Z,34.22
2022-09-24T02:54:31.280Z,29.98
2022-09-24T02:59:35.815Z,29.42
2022-09-24T03:04:40.657Z,29.17
2022-09-24T03:09:44.141Z,29.10
2022-09-24T03:14:47.720Z,27.88
2022-09-24T03:19:52.589Z,30.20
2022-09-24T03:24:56.093Z,25.88
2022-09-24T03:30:16.774Z,25.85
2022-09-24T03:35:21.776Z,27.02
2022-09-24T03:40:25.501Z,29.35
2022-09-24T03:45:29.155Z,28.88
2022-09-24T03:50:37.458Z,26.30
2022-09-24T03:55:45.275Z,25.63
2022-09-24T04:00:48.882Z,28.45
2022-09-24T04:05:53.944Z,24.90
2022-09-24T04:10:57.401Z,25.63
2022-09-24T04:16:03.183Z,27.67
2022-09-24T04:21:08.561Z,29.27
2022-09-24T04:26:12.536Z,29.75
2022-09-24T04:31:16.037Z,26.08
2022-09-24T04:36:21.695Z,28.60
2022-09-24T04:41:25.155Z,29.10
2022-09-24T04:46:29.024Z,31.35
2022-09-24T04:51:34.280Z,32.08
2022-09-24T04:56:37.807Z,31.13
2022-09-24T05:01:41.372Z,31.58
2022-09-24T05:06:46.502Z,32.58
2022-09-24T05:11:50.130Z,30.45
2022-09-24T05:16:53.837Z,32.78
2022-09-24T05:21:58.942Z,31.83
2022-09-24T05:27:11.664Z,31.80
2022-09-24T05:32:17.124Z,35.17
2022-09-24T05:37:22.009Z,34.25
2022-09-24T05:42:25.605Z,32.42
2022-09-24T05:47:29.083Z,31.02
2022-09-24T05:52:33.974Z,28.73
2022-09-24T05:57:37.768Z,31.42
2022-09-24T06:02:41.336Z,31.20
2022-09-24T06:07:46.267Z,27.92
2022-09-24T06:12:50.567Z,31.45
2022-09-24T06:17:55.636Z,33.30
2022-09-24T06:23:00.508Z,32.53
2022-09-24T06:28:05.818Z,31.55
2022-09-24T06:33:11.766Z,64.53
2022-09-24T06:38:19.508Z,36.10
2022-09-24T06:43:23.033Z,36.55
2022-09-24T06:48:27.528Z,44.72
2022-09-24T06:53:32.449Z,36.10
2022-09-24T06:58:35.941Z,37.22
2022-09-24T07:03:40.269Z,44.95
2022-09-24T07:08:45.397Z,39.67
2022-09-24T07:13:48.822Z,40.55
2022-09-24T07:18:52.272Z,33.70
2022-09-24T07:23:58.721Z,33.90
2022-09-24T07:29:02.500Z,35.08
2022-09-24T07:34:09.103Z,35.08
2022-09-24T07:39:14.061Z,32.88
2022-09-24T07:44:18.012Z,35.72
2022-09-24T07:49:21.469Z,39.20
2022-09-24T07:54:26.549Z,32.88
2022-09-24T07:59:30.687Z,36.05
2022-09-24T08:04:34.204Z,32.88
2022-09-24T08:09:39.285Z,34.65
2022-09-24T08:14:43.414Z,34.58
2022-09-24T08:19:47.867Z,31.90
2022-09-24T08:24:52.913Z,31.60
2022-09-24T08:29:58.068Z,31.58
2022-09-24T08:35:01.628Z,35.67
2022-09-24T08:40:07.970Z,30.40
2022-09-24T08:45:30.024Z,28.15
2022-09-24T08:50:39.649Z,28.05
2022-09-24T08:55:48.632Z,28.38
2022-09-24T09:00:58.984Z,41.40
2022-09-24T09:06:05.190Z,31.97
2022-09-24T09:11:15.394Z,29.83
2022-09-24T09:16:25.278Z,29.98
2022-09-24T09:21:32.865Z,27.67
2022-09-24T09:26:37.764Z,30.50
2022-09-24T09:31:56.155Z,28.05
2022-09-24T09:37:10.430Z,29.73
2022-09-24T09:42:27.552Z,29.95
2022-09-24T09:47:41.437Z,33.10
2022-09-24T09:52:45.000Z,33.72
2022-09-24T09:57:51.660Z,42.80
2022-09-24T10:02:56.016Z,29.33
2022-09-24T10:07:59.881Z,30.00
2022-09-24T10:13:10.179Z,30.02
2022-09-24T10:18:15.602Z,30.93
2022-09-24T10:23:23.039Z,27.92
2022-09-24T10:28:47.192Z,28.83
2022-09-24T10:33:54.669Z,32.90
2022-09-24T10:39:10.425Z,28.95
2022-09-24T10:44:16.718Z,31.20
2022-09-24T10:49:35.632Z,28.48
2022-09-24T10:54:52.333Z,35.05
2022-09-24T11:00:05.622Z,31.40
2022-09-24T11:05:13.417Z,30.13
2022-09-24T11:10:27.379Z,29.80
2022-09-24T11:15:54.627Z,32.83
2022-09-24T11:21:06.202Z,31.25
2022-09-24T11:26:21.467Z,34.97
2022-09-24T11:31:35.655Z,31.85
2022-09-24T11:37:01.429Z,30.52
2022-09-24T11:42:20.652Z,33.17
2022-09-24T11:47:38.375Z,33.30
2022-09-24T11:52:46.557Z,35.08
2022-09-24T11:57:55.145Z,31.60
2022-09-24T12:03:06.805Z,34.35
2022-09-24T12:08:17.743Z,35.97
2022-09-24T12:13:27.562Z,35.28
2022-09-24T12:18:37.334Z,36.70
2022-09-24T12:23:44.439Z,29.30
2022-09-24T12:29:11.760Z,31.33
2022-09-24T12:34:26.484Z,31.92
2022-09-24T12:39:34.625Z,31.58
2022-09-24T12:44:45.373Z,34.15
2022-09-24T12:49:55.426Z,30.33
2022-09-24T12:55:02.340Z,33.03
2022-09-24T13:00:37.367Z,30.30
2022-09-24T13:05:49.643Z,31.05
2022-09-24T13:10:57.241Z,25.20
2022-09-24T13:16:03.386Z,29.88
2022-09-24T13:21:10.330Z,26.00
2022-09-24T13:26:26.903Z,23.00
2022-09-24T13:31:41.385Z,29.42
2022-09-24T13:36:50.538Z,28.95
2022-09-24T13:42:02.559Z,27.70
2022-09-24T13:47:14.225Z,27.70
2022-09-24T13:52:30.912Z,30.00
2022-09-24T13:57:44.260Z,29.52
2022-09-24T14:03:01.418Z,25.45
2022-09-24T14:08:08.781Z,27.20
2022-09-24T14:13:22.414Z,30.70
2022-09-24T14:18:28.137Z,30.70
2022-09-24T14:23:40.265Z,31.88
2022-09-24T14:28:44.092Z,26.92
2022-09-24T14:33:47.777Z,31.80
2022-09-24T14:38:59.282Z,31.02
2022-09-24T14:44:07.921Z,31.25
2022-09-24T14:49:20.784Z,34.10
2022-09-24T14:54:33.829Z,17.52
2022-09-24T14:59:41.723Z,25.05
2022-09-24T15:04:48.612Z,40.55
2022-09-24T15:09:56.025Z,19.83
2022-09-24T15:15:01.312Z,17.38
2022-09-24T15:20:05.922Z,23.08
2022-09-24T15:25:11.789Z,15.05
2022-09-24T15:30:21.751Z,11.45
2022-09-24T15:35:25.629Z,13.68
2022-09-24T15:40:33.965Z,47.28
2022-09-24T15:45:38.292Z,17.58
2022-09-24T15:50:43.253Z,10.05
2022-09-24T15:55:49.699Z,9.75
2022-09-24T16:00:53.997Z,7.20
2022-09-24T16:05:59.239Z,6.07
2022-09-24T16:11:09.001Z,11.25
2022-09-24T16:16:13.349Z,8.90
2022-09-24T16:21:17.045Z,11.45
2022-09-24T16:26:22.039Z,9.38
2022-09-24T16:31:25.702Z,17.58
2022-09-24T16:36:29.323Z,13.38
2022-09-24T16:41:36.992Z,9.88
2022-09-24T16:46:40.584Z,11.55
2022-09-24T16:51:44.278Z,10.88
2022-09-24T16:56:52.304Z,11.02
2022-09-24T17:01:56.046Z,15.57
2022-09-24T17:07:00.416Z,10.52
2022-09-24T17:12:05.810Z,23.25
2022-09-24T17:17:09.359Z,10.38
2022-09-24T17:22:13.049Z,7.97
2022-09-24T17:27:18.039Z,10.40
2022-09-24T17:32:21.657Z,9.27
2022-09-24T17:37:25.412Z,8.57
2022-09-24T17:42:31.778Z,11.95
2022-09-24T17:47:49.244Z,10.48
2022-09-24T17:52:52.817Z,7.75
2022-09-24T17:57:57.736Z,10.35
2022-09-24T18:03:01.388Z,12.50
2022-09-24T18:08:05.210Z,49.88
2022-09-24T18:13:10.136Z,14.18
2022-09-24T18:18:13.996Z,9.95
2022-09-24T18:23:17.559Z,10.43
2022-09-24T18:28:22.670Z,9.98
2022-09-24T18:33:26.092Z,9.18
2022-09-24T18:38:30.113Z,10.45
2022-09-24T18:43:35.117Z,11.05
2022-09-24T18:48:39.687Z,10.32
2022-09-24T18:53:43.371Z,12.18
2022-09-24T18:58:48.316Z,10.98
2022-09-24T19:03:51.982Z,10.23
2022-09-24T19:08:55.606Z,11.02
2022-09-24T19:14:01.290Z,9.77
2022-09-24T19:19:04.756Z,12.90
2022-09-24T19:24:09.934Z,12.95
2022-09-24T19:29:15.287Z,27.85
2022-09-24T19:34:20.707Z,19.05
2022-09-24T19:39:24.543Z,11.40
2022-09-24T19:44:29.600Z,11.43
2022-09-24T19:49:33.167Z,12.98
2022-09-24T19:54:37.495Z,16.35
2022-09-24T19:59:42.375Z,12.50
2022-09-24T20:04:46.007Z,10.80
2022-09-24T20:09:49.624Z,13.02
2022-09-24T20:14:54.544Z,11.40
2022-09-24T20:20:01.007Z,15.20
2022-09-24T20:25:05.254Z,12.15
2022-09-24T20:30:11.651Z,45.53
2022-09-24T20:35:16.041Z,7.75
2022-09-24T20:40:19.832Z,10.38
2022-09-24T20:45:25.127Z,13.27
2022-09-24T20:50:28.617Z,11.63
2022-09-24T20:55:32.101Z,8.02
2022-09-24T21:00:47.977Z,12.82
2022-09-24T21:05:51.531Z,11.77
2022-09-24T21:11:01.242Z,12.23
2022-09-24T21:16:06.350Z,10.27
2022-09-24T21:21:11.634Z,17.38
2022-09-24T21:26:18.530Z,7.03
2022-09-24T21:31:25.442Z,12.68
2022-09-24T21:36:32.389Z,15.15
2022-09-24T21:41:38.166Z,10.60
2022-09-24T21:46:43.901Z,60.33
2022-09-24T21:51:48.025Z,14.32
2022-09-24T21:56:54.288Z,11.77
2022-09-24T22:01:59.464Z,14.07
2022-09-24T22:07:03.672Z,7.70
2022-09-24T22:12:07.236Z,7.80
2022-09-24T22:17:13.879Z,34.97
2022-09-24T22:22:17.361Z,11.23
2022-09-24T22:27:20.873Z,8.80
2022-09-24T22:32:25.821Z,13.65
2022-09-24T22:37:29.389Z,11.18
2022-09-24T22:42:32.881Z,10.52
2022-09-24T22:47:37.758Z,10.60
2022-09-24T22:52:41.268Z,10.50
2022-09-24T22:57:44.790Z,7.30
2022-09-24T23:02:49.696Z,12.82
2022-09-24T23:07:53.200Z,8.65
2022-09-24T23:12:56.669Z,8.00
2022-09-24T23:18:01.486Z,13.38
2022-09-24T23:23:05.063Z,9.75
2022-09-24T23:28:08.599Z,9.07
2022-09-24T23:33:13.490Z,11.98
2022-09-24T23:38:17.026Z,7.03
2022-09-24T23:43:21.259Z,9.90
2022-09-24T23:48:26.965Z,8.93
2022-09-24T23:53:30.559Z,7.85
2022-09-24T23:58:34.166Z,15.50
